This is the latest recevied weather packets stored in our database for station/object OE5XFR. If no packets are shown the sender has not sent any weather packets the latest 1 day(s).
| Time | Temp. | Humidity | Pressure | Rain* | Wind** | Luminosity | Snow |
|---|---|---|---|---|---|---|---|
| 1836274214 | 10.56° C | 96% | 1024 hPa | 0 mm | 1.34 m/s, 249° | - | - |
| 1836274183 | 10.56° C | 96% | 1024 hPa | 0 mm | 1.34 m/s, 235° | - | - |
| 1778026155 | 12.78° C | 82% | 1011 hPa | 0 mm | 1.34 m/s, 225° | - | - |
| 1778025435 | 12.78° C | 84% | 1011 hPa | 0 mm | 2.24 m/s, 278° | - | - |
| 1778024715 | 12.78° C | 84% | 1011 hPa | 0 mm | 2.24 m/s, 278° | - | - |
| 1778023995 | 13.33° C | 89% | 1010 hPa | 0 mm | 4.02 m/s, 267° | - | - |
| 1778023275 | 13.33° C | 89% | 1010 hPa | 0 mm | 4.02 m/s, 267° | - | - |
| 1778022555 | 13.33° C | 91% | 1010 hPa | 0 mm | 5.36 m/s, 263° | - | - |
| 1778021835 | 12.78° C | 91% | 1010 hPa | 0 mm | 5.81 m/s, 270° | - | - |
| 1778021115 | 12.78° C | 92% | 1010 hPa | 0 mm | 7.15 m/s, 271° | - | - |
| 1778020395 | 12.78° C | 93% | 1010 hPa | 0 mm | 4.47 m/s, 249° | - | - |
| 1778019675 | 12.78° C | 93% | 1010 hPa | 0 mm | 4.47 m/s, 249° | - | - |
| 1778018956 | 12.78° C | 92% | 1010 hPa | 0 mm | 4.02 m/s, 262° | - | - |
| 1778018235 | 12.78° C | 92% | 1010 hPa | 0 mm | 4.02 m/s, 248° | - | - |
| 1778017514 | 12.78° C | 92% | 1010 hPa | 0 mm | 4.02 m/s, 248° | - | - |
| 1778016794 | 12.22° C | 94% | 1009 hPa | 0 mm | 5.36 m/s, 257° | - | - |
| 1778016075 | 11.67° C | 95% | 1009 hPa | 0 mm | 4.92 m/s, 267° | - | - |
| 1778015355 | 11.67° C | 94% | 1009 hPa | 0 mm | 1.79 m/s, 234° | - | - |
| 1778014635 | 12.22° C | 94% | 1008 hPa | 0 mm | 1.79 m/s, 246° | - | - |
| 1778013915 | 12.22° C | 94% | 1008 hPa | 0 mm | 1.79 m/s, 246° | - | - |
| 1778013195 | 12.78° C | 92% | 1008 hPa | 0 mm | 2.68 m/s, 299° | - | - |
| 1778012475 | 13.33° C | 92% | 1008 hPa | 0 mm | 2.68 m/s, 282° | - | - |
| 1778011754 | 13.33° C | 91% | 1008 hPa | 0 mm | 0.89 m/s, 267° | - | - |
| 1778011035 | 13.33° C | 91% | 1008 hPa | 0 mm | 0.45 m/s, 256° | - | - |
| 1778010314 | 13.89° C | 90% | 1008 hPa | 0 mm | 0.45 m/s, 270° | - | - |
* Rain latest hour (hover to see other rain measurements)
** Current wind speed in m/s (hover to see current wind gust speed)